createdAt,value
2018-07-25T00:02:08.169Z,5.60
2018-07-25T00:04:36.546Z,4.30
2018-07-25T00:07:04.973Z,4.00
2018-07-25T00:09:33.509Z,5.97
2018-07-25T00:12:01.887Z,7.50
2018-07-25T00:14:30.347Z,4.10
2018-07-25T00:16:58.766Z,7.70
2018-07-25T00:19:27.482Z,6.37
2018-07-25T00:21:55.966Z,7.90
2018-07-25T00:24:24.456Z,6.40
2018-07-25T00:26:52.841Z,5.23
2018-07-25T00:29:21.384Z,6.83
2018-07-25T00:31:49.878Z,10.30
2018-07-25T00:34:18.510Z,6.03
2018-07-25T00:36:46.920Z,7.33
2018-07-25T00:39:15.373Z,10.07
2018-07-25T00:41:43.988Z,7.27
2018-07-25T00:44:12.406Z,8.10
2018-07-25T00:46:40.799Z,9.93
2018-07-25T00:49:09.233Z,7.03
2018-07-25T00:51:37.813Z,6.97
2018-07-25T00:54:06.206Z,6.63
2018-07-25T00:56:34.951Z,8.77
2018-07-25T00:59:03.737Z,7.63
2018-07-25T01:01:32.634Z,8.47
2018-07-25T01:04:01.133Z,9.57
2018-07-25T01:06:29.797Z,8.63
2018-07-25T01:08:58.680Z,7.47
2018-07-25T01:11:27.082Z,8.03
2018-07-25T01:13:55.775Z,7.87
2018-07-25T01:16:24.365Z,8.57
2018-07-25T01:18:52.796Z,8.20
2018-07-25T01:21:21.386Z,10.10
2018-07-25T01:23:50.115Z,11.07
2018-07-25T01:26:18.710Z,11.10
2018-07-25T01:28:50.220Z,9.90
2018-07-25T01:31:19.017Z,8.87
2018-07-25T01:33:47.685Z,12.43
2018-07-25T01:36:16.328Z,10.33
2018-07-25T01:38:44.834Z,10.20
2018-07-25T01:41:13.563Z,9.97
2018-07-25T01:43:41.966Z,10.33
2018-07-25T01:46:10.401Z,9.80
2018-07-25T01:48:38.831Z,11.40
2018-07-25T01:51:07.635Z,11.03
2018-07-25T01:53:36.044Z,8.80
2018-07-25T01:56:04.460Z,9.67
2018-07-25T01:58:33.261Z,10.90
2018-07-25T02:01:01.664Z,9.40
2018-07-25T02:03:30.308Z,10.43
2018-07-25T02:05:58.700Z,11.10
2018-07-25T02:08:27.169Z,8.33
2018-07-25T02:10:55.745Z,11.00
2018-07-25T02:13:24.524Z,10.30
2018-07-25T02:15:53.000Z,9.30
2018-07-25T02:18:21.884Z,8.00
2018-07-25T02:20:50.461Z,7.77
2018-07-25T02:23:18.863Z,9.70
2018-07-25T02:25:47.352Z,10.63
2018-07-25T02:28:15.968Z,8.60
2018-07-25T02:30:44.505Z,7.97
2018-07-25T02:33:12.916Z,8.80
2018-07-25T02:35:41.470Z,9.47
2018-07-25T02:38:10.706Z,7.53
2018-07-25T02:40:39.088Z,8.77
2018-07-25T02:43:07.545Z,6.97
2018-07-25T02:45:41.655Z,7.83
2018-07-25T02:48:10.195Z,11.13
2018-07-25T02:50:38.741Z,6.83
2018-07-25T02:53:07.450Z,6.20
2018-07-25T02:55:36.416Z,6.87
2018-07-25T02:58:04.611Z,8.93
2018-07-25T03:00:33.309Z,6.07
2018-07-25T03:03:02.091Z,5.73
2018-07-25T03:05:30.740Z,5.20
2018-07-25T03:07:59.325Z,7.27
2018-07-25T03:10:28.446Z,7.73
2018-07-25T03:12:56.839Z,5.33
2018-07-25T03:15:24.956Z,4.80
2018-07-25T03:17:53.378Z,4.63
2018-07-25T03:20:22.327Z,7.73
2018-07-25T03:22:50.746Z,5.47
2018-07-25T03:25:19.415Z,5.60
2018-07-25T03:27:47.864Z,5.00
2018-07-25T03:30:16.305Z,6.23
2018-07-25T03:32:44.829Z,5.13
2018-07-25T03:35:13.443Z,4.63
2018-07-25T03:37:41.959Z,4.20
2018-07-25T03:40:10.465Z,5.03
2018-07-25T03:42:38.968Z,6.17
2018-07-25T03:45:07.604Z,4.33
2018-07-25T03:47:36.580Z,6.27
2018-07-25T03:50:05.425Z,6.17
2018-07-25T03:52:34.152Z,5.60
2018-07-25T03:55:02.588Z,4.03
2018-07-25T03:57:31.172Z,4.27
2018-07-25T04:00:00.016Z,4.37
2018-07-25T04:02:28.457Z,6.90
2018-07-25T04:04:56.890Z,4.93
2018-07-25T04:07:25.337Z,5.50
2018-07-25T04:09:53.726Z,6.97
2018-07-25T04:12:22.338Z,4.00
2018-07-25T04:14:51.182Z,5.47
2018-07-25T04:17:19.573Z,5.93
2018-07-25T04:19:47.988Z,4.90
2018-07-25T04:22:16.510Z,4.60
2018-07-25T04:24:44.990Z,4.47
2018-07-25T04:27:13.381Z,4.30
2018-07-25T04:29:42.486Z,4.47
2018-07-25T04:32:11.242Z,5.37
2018-07-25T04:34:40.296Z,6.43
2018-07-25T04:37:08.644Z,4.30
2018-07-25T04:39:37.740Z,3.80
2018-07-25T04:42:06.389Z,4.47
2018-07-25T04:44:34.769Z,5.17
2018-07-25T04:47:03.343Z,4.83
2018-07-25T04:49:31.966Z,3.57
2018-07-25T04:52:00.541Z,4.30
2018-07-25T04:54:29.265Z,4.27
2018-07-25T04:56:57.674Z,5.33
2018-07-25T04:59:26.840Z,5.73
2018-07-25T05:01:55.639Z,4.23
2018-07-25T05:04:24.044Z,5.00
2018-07-25T05:06:52.440Z,5.43
2018-07-25T05:09:20.958Z,4.10
2018-07-25T05:11:49.334Z,4.90
2018-07-25T05:14:18.525Z,4.10
2018-07-25T05:16:47.805Z,6.67
2018-07-25T05:19:17.561Z,5.07
2018-07-25T05:21:45.939Z,5.10
2018-07-25T05:24:14.515Z,5.60
2018-07-25T05:26:43.135Z,7.13
2018-07-25T05:29:12.592Z,6.23
2018-07-25T05:31:40.756Z,5.43
2018-07-25T05:34:09.349Z,12.17
2018-07-25T05:36:37.794Z,7.37
2018-07-25T05:39:09.680Z,5.73
2018-07-25T05:41:38.526Z,8.73
2018-07-25T05:44:07.274Z,10.63
2018-07-25T05:46:35.684Z,7.50
2018-07-25T05:49:04.144Z,7.60
2018-07-25T05:51:32.848Z,9.73
2018-07-25T05:54:01.417Z,6.77
2018-07-25T05:56:30.210Z,5.50
2018-07-25T05:58:59.079Z,4.87
2018-07-25T06:01:27.607Z,9.43
2018-07-25T06:03:56.573Z,4.20
2018-07-25T06:06:25.041Z,5.63
2018-07-25T06:08:53.747Z,5.73
2018-07-25T06:11:22.260Z,5.40
2018-07-25T06:13:50.817Z,10.87
2018-07-25T06:16:19.340Z,8.13
2018-07-25T06:18:48.546Z,5.23
2018-07-25T06:21:17.137Z,8.23
2018-07-25T06:23:46.132Z,7.63
2018-07-25T06:26:14.798Z,8.90
2018-07-25T06:28:43.462Z,6.93
2018-07-25T06:31:11.882Z,10.93
2018-07-25T06:33:40.405Z,6.37
2018-07-25T06:36:08.529Z,6.43
2018-07-25T06:38:36.933Z,6.93
2018-07-25T06:41:05.860Z,10.03
2018-07-25T06:43:34.413Z,8.47
2018-07-25T06:46:02.847Z,8.13
2018-07-25T06:48:31.258Z,9.07
2018-07-25T06:50:59.731Z,7.53
2018-07-25T06:53:28.468Z,12.67
2018-07-25T06:55:57.206Z,7.50
2018-07-25T06:58:25.927Z,7.97
2018-07-25T07:00:54.365Z,11.97
2018-07-25T07:03:23.098Z,7.77
2018-07-25T07:05:51.557Z,9.57
2018-07-25T07:08:20.030Z,6.90
2018-07-25T07:10:49.133Z,10.70
2018-07-25T07:13:17.532Z,11.67
2018-07-25T07:16:19.413Z,10.43
2018-07-25T07:18:48.084Z,12.07
2018-07-25T07:21:26.119Z,11.53
2018-07-25T07:24:04.199Z,9.67
2018-07-25T07:30:07.294Z,12.93
2018-07-25T07:36:12.364Z,18.47
2018-07-25T07:38:41.817Z,34.67
2018-07-25T07:41:14.951Z,32.73
2018-07-25T07:43:44.002Z,34.13
2018-07-25T07:46:14.662Z,41.73
2018-07-25T07:51:31.797Z,50.33
2018-07-25T07:54:23.066Z,35.27
2018-07-25T07:56:52.900Z,41.80
2018-07-25T07:59:25.756Z,30.87
2018-07-25T08:01:54.685Z,22.07
2018-07-25T08:04:23.596Z,18.53
2018-07-25T08:07:06.848Z,15.27
2018-07-25T08:09:56.643Z,20.97
2018-07-25T08:12:37.012Z,14.47
2018-07-25T08:15:08.064Z,13.50
2018-07-25T08:17:36.733Z,17.03
2018-07-25T08:20:13.569Z,13.23
2018-07-25T08:22:42.007Z,13.57
2018-07-25T08:25:10.453Z,14.47
2018-07-25T08:27:39.116Z,9.20
2018-07-25T08:30:08.008Z,11.33
2018-07-25T08:32:36.798Z,9.23
2018-07-25T08:35:09.805Z,7.67
2018-07-25T08:37:38.231Z,7.17
2018-07-25T08:40:07.604Z,7.40
2018-07-25T08:42:36.365Z,9.03
2018-07-25T08:45:05.851Z,12.27
2018-07-25T08:47:34.325Z,11.57
2018-07-25T08:50:03.161Z,10.93
2018-07-25T08:52:31.430Z,9.60
2018-07-25T08:54:59.921Z,9.73
2018-07-25T08:57:28.387Z,7.93
2018-07-25T08:59:56.878Z,10.13
2018-07-25T09:02:26.551Z,13.10
2018-07-25T09:04:55.081Z,11.30
2018-07-25T09:07:23.746Z,7.97
2018-07-25T09:09:52.285Z,8.80
2018-07-25T09:12:20.722Z,11.83
2018-07-25T09:14:49.579Z,12.20
2018-07-25T09:17:18.131Z,9.33
2018-07-25T09:19:46.733Z,11.03
2018-07-25T09:22:15.479Z,8.43
2018-07-25T09:24:45.143Z,10.67
2018-07-25T09:27:13.771Z,8.57
2018-07-25T09:29:42.539Z,8.90
2018-07-25T09:32:11.219Z,9.20
2018-07-25T09:34:39.958Z,8.63
2018-07-25T09:37:08.830Z,7.27
2018-07-25T09:39:38.349Z,10.13
2018-07-25T09:42:06.872Z,12.23
2018-07-25T09:44:36.554Z,9.27
2018-07-25T09:47:05.475Z,8.90
2018-07-25T09:49:33.887Z,7.30
2018-07-25T09:52:03.181Z,10.43
2018-07-25T09:54:31.639Z,7.40
2018-07-25T09:57:00.509Z,7.97
2018-07-25T09:59:28.978Z,8.30
2018-07-25T10:01:57.400Z,8.50
2018-07-25T10:04:26.119Z,6.87
2018-07-25T10:06:54.739Z,10.13
2018-07-25T10:09:23.202Z,6.90
2018-07-25T10:11:51.621Z,8.97
2018-07-25T10:14:20.548Z,11.27
2018-07-25T10:16:49.059Z,11.97
2018-07-25T10:19:17.717Z,7.53
2018-07-25T10:21:46.993Z,9.30
2018-07-25T10:24:16.626Z,8.10
2018-07-25T10:26:45.563Z,9.13
2018-07-25T10:29:14.085Z,7.43
2018-07-25T10:31:42.640Z,8.33
2018-07-25T10:34:11.358Z,8.03
2018-07-25T10:36:39.691Z,9.93
2018-07-25T10:39:09.189Z,9.90
2018-07-25T10:41:37.864Z,8.70
2018-07-25T10:44:06.619Z,7.13
2018-07-25T10:46:34.901Z,6.73
2018-07-25T10:49:03.893Z,8.83
2018-07-25T10:51:32.916Z,6.83
2018-07-25T10:54:01.714Z,5.70
2018-07-25T10:56:30.322Z,6.30
2018-07-25T10:58:58.499Z,10.80
2018-07-25T11:01:27.076Z,7.23
2018-07-25T11:03:56.042Z,13.23
2018-07-25T11:06:24.728Z,8.60
2018-07-25T11:08:53.333Z,8.97
2018-07-25T11:11:22.034Z,9.03
2018-07-25T11:13:50.475Z,4.90
2018-07-25T11:16:19.846Z,6.00
2018-07-25T11:18:48.824Z,4.53
2018-07-25T11:21:17.459Z,5.30
2018-07-25T11:23:45.944Z,5.90
2018-07-25T11:26:14.503Z,9.10
2018-07-25T11:28:43.004Z,4.50
2018-07-25T11:31:11.605Z,5.30
2018-07-25T11:33:40.158Z,4.77
2018-07-25T11:36:08.616Z,3.40
2018-07-25T11:38:37.242Z,3.60
2018-07-25T11:41:06.448Z,3.43
2018-07-25T11:43:35.115Z,9.30
2018-07-25T11:46:03.897Z,5.73
2018-07-25T11:48:33.347Z,7.27
2018-07-25T11:51:01.981Z,4.37
2018-07-25T11:53:30.891Z,5.00
2018-07-25T11:55:59.533Z,5.10
2018-07-25T11:58:28.030Z,7.83
2018-07-25T12:00:57.388Z,6.50
2018-07-25T12:03:25.964Z,5.83
2018-07-25T12:05:54.422Z,5.37
2018-07-25T12:08:23.162Z,4.53
2018-07-25T12:10:51.896Z,6.90
2018-07-25T12:13:21.107Z,6.20
2018-07-25T12:15:49.701Z,3.87
2018-07-25T12:18:18.329Z,4.17
2018-07-25T12:20:55.637Z,5.13
2018-07-25T12:23:24.185Z,3.57
2018-07-25T12:25:52.870Z,4.63
2018-07-25T12:28:21.979Z,3.60
2018-07-25T12:30:51.349Z,2.93
2018-07-25T12:33:20.782Z,3.60
2018-07-25T12:35:49.296Z,5.50
2018-07-25T12:38:19.195Z,4.33
2018-07-25T12:40:49.854Z,4.10
2018-07-25T12:43:19.286Z,3.87
2018-07-25T12:45:49.823Z,5.50
2018-07-25T12:48:18.404Z,4.40
2018-07-25T12:50:47.187Z,5.27
2018-07-25T12:53:16.009Z,3.77
2018-07-25T12:55:44.929Z,7.03
2018-07-25T12:58:13.873Z,4.03
2018-07-25T13:00:42.821Z,5.33
2018-07-25T13:03:11.271Z,7.33
2018-07-25T13:05:39.814Z,5.87
2018-07-25T13:08:08.645Z,4.67
2018-07-25T13:10:39.315Z,5.57
2018-07-25T13:13:12.448Z,4.13
2018-07-25T13:15:43.114Z,5.13
2018-07-25T13:18:14.444Z,7.37
2018-07-25T13:20:44.999Z,3.93
2018-07-25T13:23:13.583Z,3.17
2018-07-25T13:25:42.313Z,3.43
2018-07-25T13:28:10.773Z,4.33
2018-07-25T13:30:39.285Z,4.60
2018-07-25T13:33:08.199Z,5.37
2018-07-25T13:35:36.839Z,3.67
2018-07-25T13:38:06.729Z,4.13
2018-07-25T13:40:37.885Z,6.53
2018-07-25T13:43:08.964Z,3.97
2018-07-25T13:45:40.062Z,4.83
2018-07-25T13:48:10.139Z,3.10
2018-07-25T13:50:38.732Z,2.57
2018-07-25T13:53:08.215Z,3.87
2018-07-25T13:58:49.372Z,2.40
2018-07-25T14:01:18.898Z,2.90
2018-07-25T14:03:50.200Z,4.50
2018-07-25T14:06:25.624Z,2.60
2018-07-25T14:09:01.408Z,3.63
2018-07-25T14:11:30.145Z,4.07
2018-07-25T14:13:59.005Z,4.83
2018-07-25T14:16:29.693Z,5.27
2018-07-25T14:19:12.013Z,3.53
2018-07-25T14:21:41.029Z,3.00
2018-07-25T14:24:09.851Z,5.63
2018-07-25T14:26:38.331Z,4.70
2018-07-25T14:29:06.941Z,3.80
2018-07-25T14:31:35.843Z,4.00
2018-07-25T14:34:04.084Z,3.33
2018-07-25T14:36:32.884Z,7.10
2018-07-25T14:39:01.522Z,4.80
2018-07-25T14:41:30.119Z,4.30
2018-07-25T14:44:00.419Z,6.33
2018-07-25T14:46:29.529Z,6.80
2018-07-25T14:48:58.128Z,8.37
2018-07-25T14:51:29.478Z,3.97
2018-07-25T14:53:59.876Z,3.60
2018-07-25T14:56:30.428Z,3.33
2018-07-25T14:58:59.979Z,6.63
2018-07-25T15:01:29.173Z,5.57
2018-07-25T15:03:57.741Z,4.50
2018-07-25T15:06:26.247Z,5.43
2018-07-25T15:08:55.028Z,4.00
2018-07-25T15:11:23.673Z,4.70
2018-07-25T15:13:52.353Z,5.80
2018-07-25T15:16:23.316Z,9.50
2018-07-25T15:18:51.854Z,6.00
2018-07-25T15:21:20.320Z,4.53
2018-07-25T15:23:59.319Z,3.43
2018-07-25T15:26:28.346Z,4.77
2018-07-25T15:29:00.283Z,4.50
2018-07-25T15:31:30.267Z,4.90
2018-07-25T15:33:59.709Z,5.10
2018-07-25T15:36:42.442Z,7.00
2018-07-25T15:39:27.141Z,8.47
2018-07-25T15:41:57.252Z,8.40
2018-07-25T15:44:26.871Z,5.57
2018-07-25T15:46:55.766Z,6.40
2018-07-25T15:49:25.650Z,4.97
2018-07-25T15:51:55.014Z,4.97
2018-07-25T15:54:24.871Z,6.13
2018-07-25T15:56:54.687Z,4.80
2018-07-25T15:59:23.802Z,5.53
2018-07-25T16:01:52.764Z,8.77
2018-07-25T16:04:21.480Z,5.20
2018-07-25T16:06:50.374Z,7.40
2018-07-25T16:09:19.028Z,7.27
2018-07-25T16:11:48.044Z,3.97
2018-07-25T16:14:16.833Z,6.37
2018-07-25T16:16:45.370Z,5.87
2018-07-25T16:19:13.571Z,4.60
2018-07-25T16:21:42.089Z,7.47
2018-07-25T16:24:12.212Z,5.73
2018-07-25T16:26:40.596Z,6.77
2018-07-25T16:29:09.796Z,8.60
2018-07-25T16:31:38.265Z,6.57
2018-07-25T16:34:06.916Z,7.23
2018-07-25T16:36:35.520Z,5.57
2018-07-25T16:39:06.262Z,5.80
2018-07-25T16:41:34.939Z,6.20
2018-07-25T16:44:03.541Z,9.77
2018-07-25T16:46:32.352Z,5.27
2018-07-25T16:49:00.640Z,5.97
2018-07-25T16:51:28.909Z,6.77
2018-07-25T16:53:57.278Z,6.77
2018-07-25T16:56:25.721Z,6.97
2018-07-25T16:58:54.191Z,6.07
2018-07-25T17:01:22.652Z,6.20
2018-07-25T17:03:51.090Z,5.93
2018-07-25T17:06:19.471Z,5.77
2018-07-25T17:08:47.868Z,6.60
2018-07-25T17:11:16.483Z,6.20
2018-07-25T17:13:45.080Z,4.73
2018-07-25T17:16:13.680Z,6.33
2018-07-25T17:18:42.312Z,8.03
2018-07-25T17:21:10.747Z,5.13
2018-07-25T17:23:39.154Z,6.17
2018-07-25T17:26:07.537Z,4.10
2018-07-25T17:28:36.728Z,7.17
2018-07-25T17:31:05.112Z,6.77
2018-07-25T17:33:34.221Z,6.47
2018-07-25T17:36:02.757Z,4.57
2018-07-25T17:38:31.653Z,6.87
2018-07-25T17:41:00.336Z,7.77
2018-07-25T17:43:29.462Z,8.50
2018-07-25T17:45:57.895Z,6.77
2018-07-25T17:48:26.815Z,7.03
2018-07-25T17:50:55.228Z,6.70
2018-07-25T17:53:23.423Z,4.23
2018-07-25T17:55:52.354Z,5.60
2018-07-25T17:58:20.752Z,13.73
2018-07-25T18:00:49.128Z,7.50
2018-07-25T18:03:17.528Z,5.23
2018-07-25T18:05:45.908Z,4.37
2018-07-25T18:08:14.400Z,4.63
2018-07-25T18:10:43.541Z,5.80
2018-07-25T18:13:17.470Z,6.47
2018-07-25T18:15:46.111Z,4.67
2018-07-25T18:18:14.464Z,4.43
2018-07-25T18:20:42.946Z,4.67
2018-07-25T18:23:11.359Z,3.80
2018-07-25T18:25:39.904Z,5.07
2018-07-25T18:28:08.356Z,5.90
2018-07-25T18:30:36.859Z,4.67
2018-07-25T18:33:05.309Z,5.67
2018-07-25T18:35:34.146Z,5.60
2018-07-25T18:38:02.770Z,5.30
2018-07-25T18:40:31.912Z,6.63
2018-07-25T18:43:01.595Z,7.40
2018-07-25T18:45:34.420Z,5.07
2018-07-25T18:48:03.260Z,6.20
2018-07-25T18:50:32.166Z,6.90
2018-07-25T18:53:00.764Z,6.87
2018-07-25T18:55:30.449Z,5.60
2018-07-25T18:57:59.012Z,4.50
2018-07-25T19:00:27.368Z,5.90
2018-07-25T19:02:56.294Z,7.87
2018-07-25T19:05:31.570Z,6.80
2018-07-25T19:08:01.819Z,9.37
2018-07-25T19:10:30.856Z,9.33
2018-07-25T19:12:59.595Z,6.57
2018-07-25T19:15:31.097Z,6.80
2018-07-25T19:18:00.647Z,4.70
2018-07-25T19:20:30.120Z,7.97
2018-07-25T19:22:59.238Z,5.53
2018-07-25T19:25:28.103Z,4.90
2018-07-25T19:27:57.191Z,6.30
2018-07-25T19:30:26.803Z,4.00
2018-07-25T19:32:56.615Z,7.23
2018-07-25T19:35:25.524Z,6.37
2018-07-25T19:37:54.777Z,4.80
2018-07-25T19:40:23.381Z,6.17
2018-07-25T19:42:51.934Z,5.87
2018-07-25T19:45:20.449Z,5.97
2018-07-25T19:47:48.877Z,6.50
2018-07-25T19:50:17.656Z,6.20
2018-07-25T19:52:46.316Z,5.03
2018-07-25T19:55:14.921Z,6.13
2018-07-25T19:57:43.420Z,9.43
2018-07-25T20:00:16.383Z,4.90
2018-07-25T20:02:41.588Z,6.20
2018-07-25T20:05:10.456Z,11.57
2018-07-25T20:07:39.204Z,6.87
2018-07-25T20:10:08.749Z,6.50
2018-07-25T20:12:37.607Z,5.00
2018-07-25T20:15:11.738Z,10.43
2018-07-25T20:17:40.197Z,6.63
2018-07-25T20:20:10.192Z,10.33
2018-07-25T20:22:39.168Z,6.97
2018-07-25T20:25:07.863Z,8.27
2018-07-25T20:27:36.632Z,7.20
2018-07-25T20:30:06.696Z,8.20
2018-07-25T20:32:35.232Z,6.93
2018-07-25T20:35:04.395Z,6.37
2018-07-25T20:37:32.951Z,7.93
2018-07-25T20:40:01.704Z,6.67
2018-07-25T20:42:30.187Z,5.60
2018-07-25T20:44:59.065Z,6.27
2018-07-25T20:47:27.534Z,5.87
2018-07-25T20:49:56.060Z,9.00
2018-07-25T20:52:24.413Z,7.47
2018-07-25T20:54:55.441Z,8.23
2018-07-25T20:57:24.659Z,5.47
2018-07-25T20:59:53.283Z,9.83
2018-07-25T21:02:21.719Z,5.10
2018-07-25T21:04:50.430Z,9.17
2018-07-25T21:07:19.083Z,6.83
2018-07-25T21:09:47.514Z,6.03
2018-07-25T21:12:15.972Z,8.30
2018-07-25T21:14:44.355Z,5.83
2018-07-25T21:17:12.752Z,5.60
2018-07-25T21:19:41.123Z,5.37
2018-07-25T21:22:09.501Z,4.70
2018-07-25T21:24:38.581Z,8.80
2018-07-25T21:27:06.968Z,7.33
2018-07-25T21:29:35.671Z,4.40
2018-07-25T21:32:04.448Z,7.13
2018-07-25T21:34:32.859Z,7.80
2018-07-25T21:37:01.219Z,6.50
2018-07-25T21:39:29.571Z,4.93
2018-07-25T21:41:58.240Z,4.50
2018-07-25T21:44:26.875Z,7.37
2018-07-25T21:46:56.200Z,6.13
2018-07-25T21:49:24.642Z,4.73
2018-07-25T21:51:53.236Z,5.13
2018-07-25T21:54:21.931Z,5.20
2018-07-25T21:56:51.131Z,5.10
2018-07-25T21:59:19.564Z,5.83
2018-07-25T22:01:47.963Z,5.97
2018-07-25T22:04:16.503Z,5.37
2018-07-25T22:06:45.036Z,4.40
2018-07-25T22:09:13.392Z,5.00
2018-07-25T22:11:41.883Z,3.77
2018-07-25T22:14:10.248Z,4.87
2018-07-25T22:16:38.713Z,4.80
2018-07-25T22:19:07.367Z,4.07
2018-07-25T22:21:35.767Z,5.37
2018-07-25T22:24:04.127Z,4.60
2018-07-25T22:26:32.635Z,7.03
2018-07-25T22:29:01.484Z,5.80
2018-07-25T22:31:29.841Z,8.40
2018-07-25T22:33:58.775Z,5.13
2018-07-25T22:36:27.286Z,4.90
2018-07-25T22:38:56.346Z,11.93
2018-07-25T22:41:24.469Z,520.53
2018-07-25T22:43:53.296Z,426.57
2018-07-25T22:46:22.590Z,337.47
2018-07-25T22:48:51.078Z,280.57
2018-07-25T22:51:19.480Z,421.63
2018-07-25T22:53:47.939Z,492.47
2018-07-25T22:56:16.472Z,309.17
2018-07-25T22:58:44.908Z,339.30
2018-07-25T23:01:13.288Z,280.77
2018-07-25T23:03:41.375Z,218.87
2018-07-25T23:06:09.828Z,161.00
2018-07-25T23:08:38.045Z,142.77
2018-07-25T23:11:07.237Z,109.33
2018-07-25T23:13:35.687Z,84.80
2018-07-25T23:16:04.060Z,66.50
2018-07-25T23:18:32.418Z,53.77
2018-07-25T23:21:01.413Z,47.10
2018-07-25T23:23:29.785Z,40.67
2018-07-25T23:25:58.188Z,30.13
2018-07-25T23:28:26.572Z,28.37
2018-07-25T23:30:54.653Z,25.50
2018-07-25T23:33:23.020Z,19.83
2018-07-25T23:35:51.438Z,19.40
2018-07-25T23:38:19.804Z,16.87
2018-07-25T23:40:48.371Z,14.30
2018-07-25T23:43:16.885Z,13.50
2018-07-25T23:45:45.263Z,12.87
2018-07-25T23:48:14.267Z,12.90
2018-07-25T23:50:43.343Z,11.17
2018-07-25T23:53:11.703Z,10.27
2018-07-25T23:55:40.240Z,8.93
2018-07-25T23:58:08.615Z,8.50
